Terminal Aerodrome Forecast
Issued by NWS

Home | Current Version | Previous Version | Graphics & Text | Print | Product List | Glossary On
Versions: 1 2 3 4 5 6 7 8 9 10 11 12 13 14 15 16 17 18 19 20
000
FTUS43 KUNR 011700
TAFGCC
TAF
KGCC 011720Z 0118/0218 30013KT P6SM BKN040
     FM012300 VRB05KT P6SM BKN050
     FM020500 18018KT P6SM SCT150=

USA.gov is the U.S. government's official web portal to all federal, state and local government web resources and services.